TimeCDT,TemperatureF,Dew PointF,Humidity,Sea Level PressureIn,VisibilityMPH,Wind Direction,Wind SpeedMPH,Gust SpeedMPH,PrecipitationIn,Events,Conditions,WindDirDegrees,DateUTC
12:15 AM,51.8,46.4,82,30.06,10.0,NNE,9.2,16.1,N/A,,Mostly Cloudy,30,2013-05-10 05:15:00
1:15 AM,48.2,42.8,82,30.08,10.0,NE,15.0,-,N/A,,Scattered Clouds,50,2013-05-10 06:15:00
1:35 AM,48.2,42.8,82,30.08,10.0,NE,15.0,18.4,N/A,,Mostly Cloudy,40,2013-05-10 06:35:00
1:55 AM,48.2,44.6,87,30.07,10.0,NE,11.5,16.1,N/A,,Overcast,40,2013-05-10 06:55:00
2:15 AM,48.2,44.6,87,30.07,10.0,NNE,10.4,-,N/A,,Overcast,30,2013-05-10 07:15:00
2:35 AM,46.4,42.8,87,30.07,10.0,NE,13.8,23.0,N/A,,Overcast,40,2013-05-10 07:35:00
2:55 AM,46.4,42.8,87,30.07,10.0,NE,9.2,-,N/A,,Overcast,40,2013-05-10 07:55:00
3:15 AM,46.4,42.8,87,30.07,10.0,NNE,8.1,-,N/A,,Overcast,30,2013-05-10 08:15:00
3:35 AM,46.4,42.8,87,30.07,10.0,NNE,8.1,-,N/A,,Overcast,20,2013-05-10 08:35:00
3:55 AM,46.4,42.8,87,30.08,10.0,NNE,8.1,-,N/A,,Overcast,30,2013-05-10 08:55:00
4:15 AM,46.4,42.8,87,30.08,10.0,NNE,5.8,-,N/A,,Overcast,20,2013-05-10 09:15:00
4:35 AM,44.6,41.0,87,30.08,10.0,NNE,5.8,-,N/A,,Scattered Clouds,30,2013-05-10 09:35:00
4:55 AM,42.8,39.2,87,30.10,10.0,North,5.8,-,N/A,,Clear,360,2013-05-10 09:55:00
5:15 AM,42.8,39.2,87,30.10,10.0,North,8.1,-,N/A,,Clear,10,2013-05-10 10:15:00
5:35 AM,42.8,37.4,81,30.09,10.0,NNE,8.1,-,N/A,,Clear,30,2013-05-10 10:35:00
5:55 AM,42.8,37.4,81,30.09,10.0,NNE,5.8,-,N/A,,Clear,20,2013-05-10 10:55:00
6:15 AM,42.8,35.6,76,30.09,10.0,NNE,5.8,-,N/A,,Clear,30,2013-05-10 11:15:00
6:35 AM,42.8,35.6,76,30.09,10.0,NNE,9.2,-,N/A,,Scattered Clouds,30,2013-05-10 11:35:00
7:15 AM,42.8,33.8,70,30.10,10.0,NNE,4.6,-,N/A,,Scattered Clouds,20,2013-05-10 12:15:00
7:35 AM,42.8,33.8,70,30.10,10.0,NNE,8.1,-,N/A,,Mostly Cloudy,30,2013-05-10 12:35:00
8:15 AM,44.6,35.6,71,30.11,10.0,North,4.6,-,N/A,,Clear,10,2013-05-10 13:15:00
8:35 AM,46.4,35.6,66,30.12,10.0,NE,3.5,-,N/A,,Clear,40,2013-05-10 13:35:00
8:55 AM,46.4,37.4,71,30.12,10.0,North,4.6,-,N/A,,Scattered Clouds,10,2013-05-10 13:55:00
9:15 AM,46.4,37.4,71,30.12,10.0,North,4.6,-,N/A,,Mostly Cloudy,360,2013-05-10 14:15:00
9:35 AM,48.2,37.4,66,30.12,10.0,NNW,6.9,-,N/A,,Overcast,330,2013-05-10 14:35:00
9:55 AM,48.2,39.2,71,30.12,10.0,North,6.9,-,N/A,,Mostly Cloudy,350,2013-05-10 14:55:00
10:15 AM,51.8,41.0,67,30.12,10.0,North,4.6,-,N/A,,Clear,360,2013-05-10 15:15:00
10:35 AM,51.8,42.8,71,30.11,10.0,North,5.8,-,N/A,,Clear,350,2013-05-10 15:35:00
10:55 AM,53.6,42.8,67,30.11,10.0,North,4.6,-,N/A,,Clear,360,2013-05-10 15:55:00
11:15 AM,53.6,44.6,72,30.11,10.0,NNW,8.1,-,N/A,,Clear,330,2013-05-10 16:15:00
11:35 AM,55.4,44.6,67,30.11,10.0,NNW,6.9,-,N/A,,Clear,330,2013-05-10 16:35:00
12:15 PM,59.0,46.4,63,30.10,10.0,NNW,6.9,-,N/A,,Clear,330,2013-05-10 17:15:00
12:35 PM,60.8,46.4,59,30.10,10.0,NW,5.8,-,N/A,,Scattered Clouds,320,2013-05-10 17:35:00
12:55 PM,60.8,46.4,59,30.10,10.0,WNW,10.4,-,N/A,,Clear,300,2013-05-10 17:55:00
1:15 PM,62.6,46.4,55,30.09,10.0,NNW,6.9,-,N/A,,Clear,340,2013-05-10 18:15:00
1:35 PM,62.6,46.4,55,30.08,10.0,NNW,8.1,-,N/A,,Scattered Clouds,330,2013-05-10 18:35:00
1:55 PM,62.6,46.4,55,30.08,10.0,NNW,8.1,-,N/A,,Scattered Clouds,330,2013-05-10 18:55:00
2:15 PM,62.6,44.6,52,30.07,10.0,NNW,6.9,-,N/A,,Scattered Clouds,330,2013-05-10 19:15:00
2:35 PM,64.4,44.6,49,30.07,10.0,North,5.8,-,N/A,,Scattered Clouds,350,2013-05-10 19:35:00
2:55 PM,64.4,44.6,49,30.07,10.0,North,6.9,-,N/A,,Scattered Clouds,350,2013-05-10 19:55:00
3:15 PM,64.4,42.8,45,30.06,10.0,NNW,10.4,-,N/A,,Clear,340,2013-05-10 20:15:00
3:35 PM,64.4,42.8,45,30.05,10.0,NNW,6.9,-,N/A,,Clear,340,2013-05-10 20:35:00
3:55 PM,66.2,41.0,40,30.04,10.0,WNW,10.4,-,N/A,,Clear,300,2013-05-10 20:55:00
4:15 PM,66.2,41.0,40,30.03,10.0,NNW,9.2,17.3,N/A,,Clear,340,2013-05-10 21:15:00
4:35 PM,68.0,41.0,37,30.02,10.0,NW,12.7,17.3,N/A,,Clear,320,2013-05-10 21:35:00
4:55 PM,68.0,42.8,40,30.01,10.0,NNW,8.1,-,N/A,,Clear,340,2013-05-10 21:55:00
5:35 PM,69.8,39.2,33,30.01,10.0,NW,10.4,17.3,N/A,,Clear,310,2013-05-10 22:35:00
5:55 PM,69.8,41.0,35,30.00,10.0,NNW,10.4,-,N/A,,Clear,330,2013-05-10 22:55:00
6:15 PM,68.0,39.2,35,30.00,10.0,WNW,9.2,17.3,N/A,,Clear,300,2013-05-10 23:15:00
6:35 PM,68.0,39.2,35,29.99,10.0,NNW,9.2,-,N/A,,Clear,330,2013-05-10 23:35:00
6:55 PM,68.0,39.2,35,29.99,10.0,NW,9.2,-,N/A,,Clear,320,2013-05-10 23:55:00
7:15 PM,66.2,39.2,37,29.98,10.0,NW,11.5,-,N/A,,Clear,320,2013-05-11 00:15:00
7:35 PM,66.2,39.2,37,29.98,10.0,NW,9.2,-,N/A,,Clear,320,2013-05-11 00:35:00
7:55 PM,64.4,41.0,42,29.99,10.0,NNW,4.6,-,N/A,,Clear,330,2013-05-11 00:55:00
8:15 PM,62.6,42.8,48,29.99,10.0,Calm,Calm,-,N/A,,Clear,0,2013-05-11 01:15:00
8:35 PM,60.8,42.8,52,30.00,10.0,WNW,3.5,-,N/A,,Clear,290,2013-05-11 01:35:00
8:55 PM,59.0,44.6,59,29.99,10.0,Calm,Calm,-,N/A,,Clear,0,2013-05-11 01:55:00
9:15 PM,55.4,44.6,67,30.00,10.0,Calm,Calm,-,N/A,,Clear,0,2013-05-11 02:15:00
9:35 PM,53.6,44.6,72,30.01,10.0,Calm,Calm,-,N/A,,Clear,0,2013-05-11 02:35:00
9:55 PM,53.6,44.6,72,30.01,10.0,SSW,3.5,-,N/A,,Clear,210,2013-05-11 02:55:00
10:15 PM,53.6,44.6,72,30.01,10.0,SSW,3.5,-,N/A,,Clear,200,2013-05-11 03:15:00
10:35 PM,53.6,44.6,72,30.01,10.0,SSW,3.5,-,N/A,,Clear,200,2013-05-11 03:35:00
10:55 PM,53.6,44.6,72,30.00,10.0,South,4.6,-,N/A,,Scattered Clouds,190,2013-05-11 03:55:00
11:15 PM,53.6,46.4,77,30.00,10.0,Calm,Calm,-,N/A,,Clear,0,2013-05-11 04:15:00
11:35 PM,55.4,46.4,72,30.00,10.0,Calm,Calm,-,N/A,,Mostly Cloudy,0,2013-05-11 04:35:00
11:55 PM,55.4,46.4,72,30.00,10.0,SW,3.5,-,N/A,,Mostly Cloudy,220,2013-05-11 04:55:00